Racecast

Cadence Ferguson

Spring Mills (WV) · 11 · PRESIDENTS' ATHLETIC · Compare head to head

Athlete rating 101.6 2022 XC season
Best race 122.4 TF
Races 53
Seasons 6 2018 — 2024

RankedNation #69969·WV #277·WV DAAAA #275·EPAC #23·Team #8 ?

Rating scale ?
Speed rating — all races

Cross Country

XC speed rating

2023 XC

Spring Mills (WV) · Grade 11

Date Meet Event Result Place Rating Difficulty PR/SR Flags
2023-09-02 Clear Spring HS 4828m 35:26.6 34th · 6th on team +0.044 SR CSR

2022 XC 100.2

Spring Mills (WV) · Grade 10

Date Meet Event Result Place Rating Difficulty PR/SR Flags
2022-10-12 Poor House Farm Park 5000m 26:39 25th · 3rd on team 101.4 +0.087 CSR
2022-10-01 Hampshire HS 5000m 26:35 32nd · 2nd on team 98.6 +0.063 ★CR CSR
2022-09-17 Cacapon Park 5000m 28:01 16th · 3rd on team 102.1 +0.142 ★CR CSR RSR
2022-09-10 South Hagerstown HS 5000m 25:06.1 53rd · 3rd on team 100.5 +0.012 SR CSR RSR
2022-09-03 Clear Spring HS 4828m 25:32.8 26th · 2nd on team 98.2 +0.044 SR CSR RSR

2021 XC 108.5

Spring Mills (WV) · Grade 9

Date Meet Event Result Place Rating Difficulty PR/SR Flags
2021-10-30 Midland XC Course 5000m 24:42 65th · 5th on team 104.6 +0.030 ★CR CSR
2021-10-06 Poor House Farm Park 5000m 24:27 7th · 4th on team 110.6 +0.087 ★CR CSR
2021-10-02 Smithsburg HS 4892m 23:04 18th · 5th on team 110.7 +0.033 ★PR ★CR SR CSR
2021-09-28 Allegany College Course 5000m 23:19.7 24th · 4th on team 108.9 +0.013 ★CR CSR
2021-09-25 Williamsport HS Course 5000m 23:00.3 15th · 3rd on team 111.4 +0.018 ★PR ★CR SR CSR RSR
2021-09-18 Cacapon Park 5000m 28:26.8 15th · 4th on team 101.2 +0.142 CR CSR
2021-09-11 South Hagerstown HS 5000m 23:02.6 17th · 4th on team 111.2 +0.012 PR ★CR SR CSR RSR
2021-09-04 Clear Spring HS 4828m 23:08.7 23rd · 4th on team 109.7 +0.044 ★PR ★CR SR CSR RSR

2019 XC 112.6

Spring Mills (WV) · Grade 7

Date Meet Event Result Place Rating Difficulty PR/SR Flags
2019-10-10 Mountain Ridge Middle School Campus 3218m 15:10.3 10th · 3rd on team 112.6 +0.019 ★PR ★CR R SR CSR RSR

2018 XC 100.6

Spring Mills (WV) · Grade 6

Date Meet Event Result Place Rating Difficulty PR/SR Flags
2018-10-10 Mountain Ridge Middle School Campus 3218m 17:06 22nd · 9th on team 100.6 +0.019 PR CR R SR CSR RSR

Track & Field

TF speed rating

2024 TF 76.5

Spring Mills (WV) · Grade 11

Date Meet Event Result Place Rating Difficulty PR/SR Flags
2024-04-10 EPAC Mid-Week Quad 1600m 8:33.38 8th · 1st on team 79.9 -0.025 SR RSR
2024-03-30 Dwight Scott Battlefield Blast Invitational 1600m 10:32.46 28th · 2nd on team -0.018
2024-03-27 Eastern Panhandle Varsity Quad Meet 1600m 9:21 8th · 2nd on team 73.5 -0.023
2024-03-20 EPAC Quad 1600m 9:05.95 11th · 2nd on team 76.0 -0.022 SR RSR

2023 TF 92.2

Spring Mills (WV) · Grade 10

Date Meet Event Result Place Rating Difficulty PR/SR Flags
2023-05-05 EPAC Championships 1600m 7:25.2 14th · 1st on team 92.4 -0.025
2023-05-02 Berkeley County Meet 3200m 16:35 4th · 1st on team 89.3 -0.026 SR
2023-05-02 Berkeley County Meet 1600m 7:22.3 6th · 1st on team 93.7 -0.026
2023-04-22 Cardinal Classic 1600m 7:11.53 10th · 1st on team 95.7 -0.025 SR RSR
2023-04-08 Dick Dei Track Classic 1600m 7:18.05 15th · 1st on team 94.2 -0.021
2023-04-05 Spring Mills Mid-Week 1600m 7:17.81 11th · 2nd on team 94.4 -0.025 SR RSR
2023-03-29 Martinsburg Home Varsity Quad Meet 1600m 7:28 9th · 1st on team 92.1 -0.023
2023-03-29 Martinsburg Home Varsity Quad Meet 3200m 16:51 4th · 1st on team 88.1 -0.023 SR
2023-03-22 EPAC Quad 1600m 7:18.26 6th · 1st on team 94.2 -0.022 SR RSR
2023-03-18 Paul Arbogast Memorial Invitational 800m 3:26.74 17th · 1st on team 89.9 -0.025 SR
2023-01-21 Mercersburg Mid-Winter Madness 1600m 7:38.71 33rd · 1st on team 90.6 -0.017 SR RSR

2022 TF 105.4

Spring Mills (WV) · Grade 9

Date Meet Event Result Place Rating Difficulty PR/SR Flags
2022-05-04 EPAC Championship 1600m 7:08.09 12th · 3rd on team 96.7 -0.024
2022-04-30 Journal Invitational-Hedgesville HS 1600m 6:17.11 7th · 2nd on team 109.7 -0.026
2022-04-27 Berkeley County Championships 1600m 6:37.17 7th · 1st on team 105.0 -0.025
2022-04-23 Fort Hill Invite @ Mountain Ridge HS 1600m 6:28.12 4th · 2nd on team 107.9 -0.014
2022-04-16 Cardinal Classic 3200m 14:20.91 6th · 2nd on team 104.3 -0.025 SR
2022-04-13 Mid-Week Meet @ Spring Mills 1600m 6:13.89 5th · 3rd on team 110.8 -0.025 SR RSR
2022-04-09 Don Boyer Inv 1600m 6:25.01 34th · 1st on team 107.9 -0.023 SR RSR
2022-04-02 Dwight Scott "Battlefield Blast" Invitational 1600m 6:33.87 18th · 1st on team 105.5 -0.018 SR RSR
2022-03-30 EPAC Quad Washington 1600m 6:38.5 4th · 1st on team 104.3 -0.018 SR RSR
2022-03-26 Paul Arbogast Memorial Invitational 1600m 6:48.52 13th · 2nd on team 102.0 -0.025 SR RSR

2021 TF 119.1

Spring Mills (WV) · Grade 8

Date Meet Event Result Place Rating Difficulty PR/SR Flags
2021-05-20 Berkeley County Freshman Championships 1600m 6:15.79 1st · 1st on team 120.2 -0.025
2021-05-20 Berkeley County Freshman Championships 800m 2:48.05 2nd · 1st on team 121.6 -0.025
2021-05-13 Freshman Meet @ HHS vs Spring Mills 1600m 6:07.8 1st · 1st on team 122.4 -0.026 ★PR ★R SR RSR
2021-05-13 Freshman Meet @ HHS vs Spring Mills 800m 2:46.9 1st · 1st on team 121.7 -0.026 ★PR SR
2021-05-11 Freshman Dual lj 11-00.00 -0.025
2021-05-11 Freshman Dual 1600m 6:19.68 1st · 1st on team 119.1 -0.025
2021-05-11 Freshman Dual 800m 3:02.04 1st · 1st on team 112.5 -0.025
2021-05-06 Martinsburg Freshman Dual Meet #2 lj 10' 1 -0.023
2021-05-06 Martinsburg Freshman Dual Meet #2 800m 2:51 1st · 1st on team 119.6 -0.023 PR R SR RSR
2021-05-06 Martinsburg Freshman Dual Meet #2 1600m 6:18 2nd · 1st on team 119.6 -0.023 PR SR
2021-04-22 Hedgesville Freshman Quad 3200m 14:18.1 2nd · 1st on team 114.7 -0.026 ★PR R SR RSR
2021-04-22 Hedgesville Freshman Quad 400m 1:12.84 4th · 2nd on team -0.026 ★PR SR